KMOR/MOR METAR and TAF weather

Enter ICAO airport designator
Station Type Date Time Source
KMOR METAR 2019/02/17 16:35 UTC NOAA

KMOR 171635Z AUTO 07005KT 4SM BR FEW005 SCT022 BKN028 07/07 A2987 RMK A01


Station Type Date Time Source
KMOR Decoded METAR 2019/02/17 16:35 UTC NOAA

Station name not available
Feb 17, 2019 - 11:35 AM EST / 2019.02.17 1635 UTC
Wind: from the ENE (070 degrees) at 6 MPH (5 KT):0
Visibility: 4 mile(s):0
Sky conditions: mostly cloudy
Weather: mist
Temperature: 44 F (7 C)
Dew Point: 44 F (7 C)
Relative Humidity: 100%
Pressure (altimeter): 29.87 in. Hg (1011 hPa)
ob: KMOR 171635Z AUTO 07005KT 4SM BR FEW005 SCT022 BKN028 07/07 A2987 RMK A01
cycle: 16

Station Type Date Time Source
KMOR TAF UTC NOAA

Error!


Example: see airport list